createdAt,value
2022-12-19T00:04:12.971Z,97307.69
2022-12-19T00:08:25.241Z,97302.19
2022-12-19T00:12:37.501Z,97293.22
2022-12-19T00:16:49.779Z,97275.16
2022-12-19T00:21:05.178Z,97284.22
2022-12-19T00:25:17.594Z,97267.50
2022-12-19T00:29:31.465Z,97246.28
2022-12-19T00:33:44.190Z,97251.97
2022-12-19T00:37:57.788Z,97237.63
2022-12-19T00:42:10.071Z,97221.56
2022-12-19T00:46:23.387Z,97256.03
2022-12-19T00:50:35.714Z,97242.06
2022-12-19T00:54:48.435Z,97313.59
2022-12-19T00:59:01.482Z,97291.44
2022-12-19T01:03:13.938Z,97270.78
2022-12-19T01:07:26.235Z,97261.44
2022-12-19T01:11:57.747Z,97261.34
2022-12-19T01:16:13.623Z,97251.81
2022-12-19T01:20:29.487Z,97226.56
2022-12-19T01:24:42.422Z,97235.41
2022-12-19T01:28:54.727Z,97206.78
2022-12-19T01:33:07.151Z,97220.47
2022-12-19T01:37:20.473Z,97235.31
2022-12-19T01:41:32.823Z,97249.44
2022-12-19T01:45:48.663Z,97258.75
2022-12-19T01:50:03.100Z,97270.19
2022-12-19T01:54:21.871Z,97280.31
2022-12-19T01:58:35.144Z,97276.81
2022-12-19T02:02:54.985Z,97279.31
2022-12-19T02:07:16.288Z,97276.94
2022-12-19T02:11:38.192Z,97268.53
2022-12-19T02:15:58.293Z,97264.38
2022-12-19T02:20:46.183Z,97291.22
2022-12-19T02:25:26.436Z,97290.19
2022-12-19T02:30:02.948Z,97273.78
2022-12-19T02:34:21.609Z,97275.25
2022-12-19T02:38:48.998Z,97297.34
2022-12-19T02:43:05.678Z,97298.03
2022-12-19T02:47:19.944Z,97294.75
2022-12-19T02:51:32.230Z,97270.53
2022-12-19T02:56:05.584Z,97316.88
2022-12-19T03:00:24.915Z,97302.28
2022-12-19T03:04:53.987Z,97302.09
2022-12-19T03:09:06.189Z,97309.38
2022-12-19T03:13:22.090Z,97292.44
2022-12-19T03:17:38.813Z,97295.75
2022-12-19T03:21:51.553Z,97309.59
2022-12-19T03:26:08.405Z,97321.03
2022-12-19T03:30:21.037Z,97297.22
2022-12-19T03:34:45.789Z,97321.47
2022-12-19T03:39:00.744Z,97323.16
2022-12-19T03:43:16.744Z,97322.81
2022-12-19T03:47:36.087Z,97321.72
2022-12-19T03:52:02.024Z,97333.72
2022-12-19T03:56:52.781Z,97315.94
2022-12-19T04:01:07.515Z,97318.75
2022-12-19T04:05:24.057Z,97325.72
2022-12-19T04:09:38.466Z,97288.91
2022-12-19T04:14:02.105Z,97292.03
2022-12-19T04:18:21.917Z,97283.97
2022-12-19T04:22:54.325Z,97307.34
2022-12-19T04:27:10.367Z,97326.53
2022-12-19T04:31:24.360Z,97335.31
2022-12-19T04:35:37.443Z,97308.22
2022-12-19T04:39:49.796Z,97306.91
2022-12-19T04:44:02.225Z,97351.81
2022-12-19T04:48:14.653Z,97316.31
2022-12-19T04:52:27.016Z,97285.47
2022-12-19T04:56:39.341Z,97313.91
2022-12-19T05:00:51.664Z,97272.13
2022-12-19T05:05:04.084Z,97333.53
2022-12-19T05:09:16.752Z,97300.66
2022-12-19T05:13:29.973Z,97331.19
2022-12-19T05:17:42.272Z,97286.13
2022-12-19T05:21:54.682Z,97320.50
2022-12-19T05:26:07.999Z,97325.00
2022-12-19T05:30:30.288Z,97318.06
2022-12-19T05:34:42.593Z,97338.81
2022-12-19T05:38:54.917Z,97344.88
2022-12-19T05:43:07.391Z,97327.16
2022-12-19T05:47:21.225Z,97319.16
2022-12-19T05:51:33.525Z,97322.13
2022-12-19T05:55:46.118Z,97328.38
2022-12-19T05:59:58.455Z,97330.53
2022-12-19T06:04:10.738Z,97323.22
2022-12-19T06:08:23.389Z,97328.63
2022-12-19T06:12:35.699Z,97296.09
2022-12-19T06:16:48.070Z,97316.06
2022-12-19T06:21:02.582Z,97321.56
2022-12-19T06:25:15.022Z,97318.00
2022-12-19T06:29:27.321Z,97327.34
2022-12-19T06:33:39.623Z,97319.94
2022-12-19T06:37:54.352Z,97334.50
2022-12-19T06:42:24.964Z,97326.13
2022-12-19T06:46:38.187Z,97318.28
2022-12-19T06:50:50.470Z,97314.91
2022-12-19T06:55:02.759Z,97315.09
2022-12-19T06:59:17.012Z,97312.63
2022-12-19T07:03:38.369Z,97312.88
2022-12-19T07:07:50.991Z,97314.03
2022-12-19T07:12:03.659Z,97315.34
2022-12-19T07:16:16.115Z,97323.72
2022-12-19T07:20:31.252Z,97339.22
2022-12-19T07:24:43.588Z,97332.44
2022-12-19T07:28:56.020Z,97327.53
2022-12-19T07:33:11.102Z,97321.75
2022-12-19T07:37:24.153Z,97327.22
2022-12-19T07:41:39.840Z,97332.44
2022-12-19T07:45:56.000Z,97341.09
2022-12-19T07:50:18.374Z,97334.19
2022-12-19T07:54:30.695Z,97329.81
2022-12-19T07:58:53.146Z,97327.16
2022-12-19T08:03:05.516Z,97340.06
2022-12-19T08:07:20.264Z,97331.31
2022-12-19T08:11:32.552Z,97323.00
2022-12-19T08:15:44.908Z,97323.31
2022-12-19T08:19:57.238Z,97322.22
2022-12-19T08:24:09.567Z,97320.72
2022-12-19T08:28:21.842Z,97305.19
2022-12-19T08:32:34.139Z,97295.72
2022-12-19T08:36:46.436Z,97289.94
2022-12-19T08:40:58.732Z,97276.38
2022-12-19T08:45:11.519Z,97284.72
2022-12-19T08:49:23.812Z,97282.00
2022-12-19T08:53:38.547Z,97290.94
2022-12-19T08:57:50.824Z,97270.41
2022-12-19T09:02:03.353Z,97271.81
2022-12-19T09:06:19.485Z,97257.84
2022-12-19T09:10:32.178Z,97254.13
2022-12-19T09:14:47.471Z,97252.16
2022-12-19T09:18:59.908Z,97242.59
2022-12-19T09:23:12.212Z,97235.53
2022-12-19T09:27:25.071Z,97239.59
2022-12-19T09:31:37.433Z,97250.91
2022-12-19T09:35:54.458Z,97268.97
2022-12-19T09:40:12.127Z,97283.88
2022-12-19T09:44:45.732Z,97277.22
2022-12-19T09:48:58.712Z,97276.41
2022-12-19T09:53:22.123Z,97271.44
2022-12-19T09:57:47.826Z,97274.47
2022-12-19T10:02:24.035Z,97262.16
2022-12-19T10:07:18.676Z,97262.13
2022-12-19T10:12:46.511Z,97256.66
2022-12-19T10:16:01.674Z,97256.34
2022-12-19T10:20:39.870Z,97250.50
2022-12-19T10:25:08.935Z,97247.38
2022-12-19T10:30:02.244Z,97260.63
2022-12-19T10:34:33.575Z,97242.56
2022-12-19T10:39:07.409Z,97249.19
2022-12-19T10:43:32.857Z,97227.78
2022-12-19T10:47:50.609Z,97229.56
2022-12-19T10:52:06.624Z,97219.16
2022-12-19T10:56:28.257Z,97198.75
2022-12-19T11:00:54.940Z,97189.78
2022-12-19T11:05:27.156Z,97182.25
2022-12-19T11:09:46.786Z,97176.81
2022-12-19T11:18:52.742Z,97149.69
2022-12-19T11:29:15.365Z,97158.34
2022-12-19T11:30:38.642Z,97151.28
2022-12-19T11:30:48.001Z,97146.97
2022-12-19T11:33:19.247Z,97156.19
2022-12-19T11:37:42.238Z,97139.91
2022-12-19T11:42:09.245Z,97145.88
2022-12-19T11:46:27.533Z,97141.47
2022-12-19T11:51:02.462Z,97140.19
2022-12-19T11:55:24.577Z,97135.44
2022-12-19T11:59:40.893Z,97145.66
2022-12-19T12:04:19.290Z,97142.69
2022-12-19T12:11:36.603Z,97141.94
2022-12-19T12:20:28.669Z,97133.78
2022-12-19T12:31:00.904Z,97137.22
2022-12-19T12:31:42.240Z,97116.31
2022-12-19T12:31:49.889Z,97132.44
2022-12-19T12:35:32.682Z,97109.84
2022-12-19T12:38:39.794Z,97112.13
2022-12-19T12:43:40.093Z,97114.63
2022-12-19T12:52:43.753Z,97110.69
2022-12-19T12:56:56.061Z,97115.69
2022-12-19T13:01:12.094Z,97123.28
2022-12-19T13:05:35.294Z,97117.44
2022-12-19T13:09:55.356Z,97109.50
2022-12-19T13:14:36.376Z,97118.28
2022-12-19T13:19:19.580Z,97129.81
2022-12-19T13:23:44.184Z,97114.69
2022-12-19T13:28:03.728Z,97104.00
2022-12-19T13:32:17.337Z,97095.69
2022-12-19T13:40:02.200Z,97082.66
2022-12-19T13:42:02.226Z,97074.50
2022-12-19T13:46:36.583Z,97077.91
2022-12-19T13:50:49.405Z,97074.84
2022-12-19T13:55:02.006Z,97068.06
2022-12-19T13:59:14.513Z,97066.13
2022-12-19T14:03:43.312Z,97069.25
2022-12-19T14:07:55.740Z,97087.97
2022-12-19T14:14:00.593Z,97092.66
2022-12-19T14:17:18.113Z,97097.69
2022-12-19T14:22:08.638Z,97101.56
2022-12-19T14:28:17.937Z,97110.78
2022-12-19T14:30:41.509Z,97126.31
2022-12-19T14:36:07.383Z,97133.16
2022-12-19T14:39:33.512Z,97135.16
2022-12-19T14:44:00.162Z,97119.59
2022-12-19T14:54:18.060Z,97111.44
2022-12-19T14:54:37.573Z,97119.91
2022-12-19T14:57:50.853Z,97100.84
2022-12-19T15:02:32.550Z,97112.50
2022-12-19T15:07:07.122Z,97098.72
2022-12-19T15:14:20.715Z,97100.63
2022-12-19T15:16:39.780Z,97094.69
2022-12-19T15:20:53.880Z,97091.72
2022-12-19T15:25:13.493Z,97090.88
2022-12-19T15:29:35.281Z,97090.00
2022-12-19T15:34:23.285Z,97082.22
2022-12-19T15:38:20.088Z,97095.59
2022-12-19T15:42:32.778Z,97111.72
2022-12-19T15:46:49.020Z,97119.13
2022-12-19T15:51:01.857Z,97105.72
2022-12-19T15:55:18.861Z,97109.47
2022-12-19T15:59:42.051Z,97109.81
2022-12-19T16:03:57.444Z,97109.19
2022-12-19T16:08:23.910Z,97109.16
2022-12-19T16:12:42.355Z,97112.97
2022-12-19T16:16:56.303Z,97111.34
2022-12-19T16:21:23.663Z,97102.13
2022-12-19T16:25:42.746Z,97104.34
2022-12-19T16:29:56.317Z,97124.28
2022-12-19T16:34:17.305Z,97128.53
2022-12-19T16:38:39.642Z,97120.69
2022-12-19T16:42:59.811Z,97121.72
2022-12-19T16:47:15.229Z,97115.34
2022-12-19T16:51:28.781Z,97117.91
2022-12-19T16:55:41.455Z,97116.25
2022-12-19T16:59:53.787Z,97114.38
2022-12-19T17:04:06.204Z,97122.22
2022-12-19T17:08:19.493Z,97114.09
2022-12-19T17:12:31.814Z,97103.41
2022-12-19T17:16:45.373Z,97106.44
2022-12-19T17:20:58.047Z,97111.31
2022-12-19T17:25:20.935Z,97119.81
2022-12-19T17:29:33.236Z,97106.72
2022-12-19T17:33:46.480Z,97102.50
2022-12-19T17:37:59.221Z,97087.78
2022-12-19T17:42:19.254Z,97096.56
2022-12-19T17:46:32.119Z,97092.19
2022-12-19T17:50:44.513Z,97095.66
2022-12-19T17:54:56.771Z,97082.72
2022-12-19T17:59:09.062Z,97091.44
2022-12-19T18:03:25.842Z,97089.94
2022-12-19T18:07:38.244Z,97076.75
2022-12-19T18:11:51.600Z,97084.91
2022-12-19T18:16:04.995Z,97076.47
2022-12-19T18:20:32.866Z,97068.41
2022-12-19T18:24:45.241Z,97057.88
2022-12-19T18:28:57.516Z,97060.28
2022-12-19T18:33:17.953Z,97056.88
2022-12-19T18:37:30.272Z,97056.31
2022-12-19T18:41:42.551Z,97041.94
2022-12-19T18:45:55.120Z,97040.91
2022-12-19T18:50:29.241Z,97034.22
2022-12-19T18:54:41.606Z,97028.59
2022-12-19T18:58:53.925Z,97038.22
2022-12-19T19:03:19.751Z,97037.47
2022-12-19T19:07:32.106Z,97027.31
2022-12-19T19:11:44.653Z,97025.78
2022-12-19T19:16:02.622Z,97042.00
2022-12-19T19:20:15.002Z,97030.34
2022-12-19T19:24:27.376Z,97018.44
2022-12-19T19:28:40.184Z,97020.22
2022-12-19T19:33:13.766Z,97029.53
2022-12-19T19:37:30.052Z,97038.06
2022-12-19T19:41:42.440Z,97053.66
2022-12-19T19:45:56.929Z,97051.13
2022-12-19T19:50:19.773Z,97039.09
2022-12-19T19:54:32.948Z,97033.50
2022-12-19T19:58:45.394Z,97015.53
2022-12-19T20:02:57.831Z,97018.03
2022-12-19T20:07:12.075Z,97028.25
2022-12-19T20:11:27.842Z,97031.72
2022-12-19T20:15:46.003Z,97038.31
2022-12-19T20:20:01.735Z,97024.09
2022-12-19T20:24:14.208Z,97032.94
2022-12-19T20:28:26.490Z,97031.97
2022-12-19T20:32:38.782Z,97031.25
2022-12-19T20:36:51.115Z,97040.19
2022-12-19T20:41:04.252Z,97046.78
2022-12-19T20:45:16.923Z,97020.66
2022-12-19T20:49:29.225Z,97026.28
2022-12-19T20:53:42.446Z,97029.00
2022-12-19T20:57:54.734Z,97027.94
2022-12-19T21:02:07.625Z,97024.63
2022-12-19T21:06:21.941Z,97012.84
2022-12-19T21:10:36.365Z,97022.88
2022-12-19T21:14:48.681Z,97023.97
2022-12-19T21:19:02.065Z,97018.31
2022-12-19T21:23:14.911Z,97030.41
2022-12-19T21:27:27.225Z,97015.19
2022-12-19T21:31:39.742Z,97025.00
2022-12-19T21:35:52.146Z,97014.22
2022-12-19T21:40:05.240Z,97023.63
2022-12-19T21:44:17.526Z,97015.94
2022-12-19T21:48:29.835Z,97026.38
2022-12-19T21:52:42.268Z,97013.66
2022-12-19T21:56:54.659Z,97004.28
2022-12-19T22:01:12.418Z,97013.34
2022-12-19T22:05:24.789Z,97017.06
2022-12-19T22:09:37.143Z,97016.78
2022-12-19T22:13:50.449Z,97007.97
2022-12-19T22:18:03.722Z,96999.44
2022-12-19T22:22:16.025Z,96983.25
2022-12-19T22:26:30.881Z,96997.81
2022-12-19T22:30:43.269Z,96985.47
2022-12-19T22:34:56.444Z,96992.09
2022-12-19T22:39:14.618Z,97009.75
2022-12-19T22:43:26.898Z,96999.34
2022-12-19T22:47:43.011Z,96999.88
2022-12-19T22:51:55.992Z,96987.09
2022-12-19T22:56:12.549Z,96987.19
2022-12-19T23:00:24.871Z,96990.94
2022-12-19T23:04:37.211Z,96982.38
2022-12-19T23:08:50.010Z,96988.34
2022-12-19T23:13:02.319Z,96985.59
2022-12-19T23:17:14.696Z,96991.03
2022-12-19T23:21:27.352Z,96988.78
2022-12-19T23:25:42.119Z,96989.97
2022-12-19T23:29:54.437Z,96988.72
2022-12-19T23:34:06.788Z,96978.16
2022-12-19T23:38:19.228Z,96962.34
2022-12-19T23:42:31.581Z,96968.84
2022-12-19T23:46:45.851Z,96975.19
2022-12-19T23:51:03.585Z,96977.84
2022-12-19T23:55:15.943Z,96971.25
2022-12-19T23:59:28.420Z,96964.16
